Startpagina
METAR-TAF:

METAR-TAF

Vliegvelden :

Nörvenich, Duitsland

breedte: 50-50N, lengte: 006-40E, hoogte: 118 m

Actueel weer

Dit bericht is 28 minuten geleden gemaakt, om 18:20 UTC
Wind 4 kt uit het noordwesten
Temperatuur 20°C
Vochtigheid 64%
Druk 1007 hPa
Zicht 10 km of meer
Weinig wolken op 2500 ft
Gebroken wolken op 4000 ft
Gebroken wolken op 15000 ft

METAR: ETNN 271820Z 32004KT 9999 FEW025 BKN040 BKN150 20/13 Q1007 BLU

Tijdstip: 20:48 (18:48 UTC)

Verwachting

Dit bericht is 5 uur en het 24 minuten geleden gemaakt, om 13:24 UTC
Verwachting geldig van 27 om 14 UTC tot 27 om 23 UTC
Wind 12 kt uit het westen
Zicht 10 km of meer
Verspreide wolken op 3000 ft
Verspreide wolken op 5000 ft
Gebroken wolken op 15000 ft
Kans 30%
van 27 om 16 UTC tot 27 om 23 UTC
Wind 15 kt uit variabele richting met uitschieters tot 25 kt
Zicht: 3000 m
Gebroken wolken op 2000 ft, Cumulonimbus.
regenbuien

TAF: ETNN 271324Z 2714/2723 27012KT 9999 NSW SCT030 SCT050 BKN150 PROB30 2716/2723 VRB15G25KT 3000 SHRA BKN020CB BY ETGL

Waarnemingen en weersverwachtingen van meer dan 4000 vliegvelden (METAR en TAF).

De beschikbare stations zijn de gele en rode punten op de kaart.

Ga met uw muis naar het station om de naam te zien.

Klik dan om waarnemingen en weersverwachtingen te zien.

kaart wijzigen: klik op de groene knoppen met een zwart kruis om in te zoomen, op de groene knop met een streepje om uit te zoomen of op de groene pijlen voor aangrenzende kaarten.


METAR-TAF: